Pagina principale
METAR-TAF:

METAR-TAF

Aeroporti :

Aeroporto di Belgrado-Nikola Tesla

Belgrado, Serbia

latitudine: 44-49N, longitudine: 020-17E, altezza: 96 m

Osservazione

Il bollettino è stato emesso 17 minuti fa, alle 10:30 UTC
Vento 8 kt da ovest
Temperature 5°C
Umidità 52%
Pressione 1017 hPa
Visibilità 10 km o più
nessuna nube inferiore a 1500 m e nessun cumulonembo

METAR: LYBE 161030Z 27008KT CAVOK 05/M04 Q1017 NOSIG

Ora: 11:47 (10:47 UTC)

Previsione

Il bollettino è stato emesso 4 ore e 47 minuti fa, alle 06:00 UTC
Previsione valida dal 16 alle 06 UTC al 17 alle 06 UTC
Vento 8 kt da sud-ovest
Visibilità 10 km o più
Nubi sparse ad un'altezza di 4000 ft
Evoluzione graduale
dal 16 alle 21 UTC al 16 alle 23 UTC
Visibilità: 5000 m
foschia
Temporaneamente
dal 17 alle 03 UTC al 17 alle 06 UTC
Visibilità: 2000 m

TAF: LYBE 160600Z 1606/1706 23008KT 9999 SCT040 TX06/1613Z TNM01/1706Z BECMG 1621/1623 5000 BR TEMPO 1703/1706 2000

Osservazioni e previsioni meteorologiche di più di 4000 aeroporti (messaggi METAR e TAF).

Le stazioni disponibili sono rappresentate dai dischi gialli e rossi sulla carta.

Puntare il mouse per vedere il nome della stazione.

Clicca sopra per visualizzare le osservazioni e previsioni meteorologiche.

Per cambiare la mappa : fare clic sui pulsanti verdi con una croce nera per ingrandire, il pulsante verde con un trattino per diminuire, o sulla freccia verde per le mappe adiacenti.


METAR-TAF: